createdAt,value
2022-12-03T00:04:33.119Z,101121.16
2022-12-03T00:09:34.782Z,101110.22
2022-12-03T00:14:41.252Z,101112.56
2022-12-03T00:19:45.732Z,101108.63
2022-12-03T00:24:47.142Z,101114.81
2022-12-03T00:29:48.592Z,101110.44
2022-12-03T00:34:50.218Z,101110.78
2022-12-03T00:39:51.732Z,101106.53
2022-12-03T00:44:53.531Z,101111.50
2022-12-03T00:49:55.075Z,101104.41
2022-12-03T00:54:56.616Z,101102.75
2022-12-03T00:59:58.149Z,101099.16
2022-12-03T01:04:59.720Z,101095.63
2022-12-03T01:10:01.253Z,101097.63
2022-12-03T01:15:02.858Z,101106.41
2022-12-03T01:20:05.752Z,101100.31
2022-12-03T01:25:07.428Z,101095.63
2022-12-03T01:30:10.746Z,101091.25
2022-12-03T01:35:12.224Z,101102.75
2022-12-03T01:40:19.443Z,101089.25
2022-12-03T01:45:23.698Z,101097.44
2022-12-03T01:50:31.674Z,101082.75
2022-12-03T01:55:33.207Z,101084.97
2022-12-03T02:00:34.714Z,101094.63
2022-12-03T02:05:37.370Z,101087.59
2022-12-03T02:10:38.845Z,101068.13
2022-12-03T02:15:40.639Z,101077.59
2022-12-03T02:21:20.098Z,101077.66
2022-12-03T02:26:21.719Z,101088.00
2022-12-03T02:31:24.121Z,101076.97
2022-12-03T02:36:25.729Z,101083.28
2022-12-03T02:41:45.975Z,101075.97
2022-12-03T02:46:47.448Z,101077.47
2022-12-03T02:51:48.975Z,101072.28
2022-12-03T02:56:50.521Z,101073.00
2022-12-03T03:01:52.107Z,101066.69
2022-12-03T03:06:53.599Z,101074.94
2022-12-03T03:11:55.088Z,101068.00
2022-12-03T03:16:56.670Z,101064.28
2022-12-03T03:21:58.483Z,101059.94
2022-12-03T03:26:59.987Z,101060.78
2022-12-03T03:32:03.020Z,101060.84
2022-12-03T03:37:04.614Z,101051.16
2022-12-03T03:42:06.168Z,101051.25
2022-12-03T03:47:07.678Z,101045.06
2022-12-03T03:52:11.589Z,101040.59
2022-12-03T03:57:13.098Z,101032.53
2022-12-03T04:02:19.668Z,101028.75
2022-12-03T04:07:21.092Z,101032.41
2022-12-03T04:12:40.963Z,101029.03
2022-12-03T04:17:42.438Z,101035.06
2022-12-03T04:22:43.864Z,101027.00
2022-12-03T04:28:04.270Z,101035.72
2022-12-03T04:33:24.148Z,101033.09
2022-12-03T04:38:25.577Z,101017.16
2022-12-03T04:43:32.488Z,101023.34
2022-12-03T04:48:33.930Z,101025.63
2022-12-03T04:53:36.297Z,101024.75
2022-12-03T04:58:37.871Z,101025.16
2022-12-03T05:03:39.716Z,101013.66
2022-12-03T05:08:41.152Z,101024.75
2022-12-03T05:13:43.197Z,101032.03
2022-12-03T05:18:44.921Z,101022.34
2022-12-03T05:23:46.350Z,101023.09
2022-12-03T05:28:48.017Z,101018.72
2022-12-03T05:33:49.439Z,101022.94
2022-12-03T05:38:50.876Z,101020.16
2022-12-03T05:43:52.340Z,101018.97
2022-12-03T05:48:53.796Z,101025.31
2022-12-03T05:53:55.274Z,101020.06
2022-12-03T05:58:56.680Z,101015.56
2022-12-03T06:03:58.177Z,101021.19
2022-12-03T06:08:59.695Z,101024.97
2022-12-03T06:14:01.390Z,101024.19
2022-12-03T06:19:02.843Z,101032.09
2022-12-03T06:24:04.535Z,101031.03
2022-12-03T06:29:05.948Z,101030.31
2022-12-03T06:34:07.460Z,101024.13
2022-12-03T06:39:08.960Z,101024.28
2022-12-03T06:44:10.922Z,101024.97
2022-12-03T06:49:12.333Z,101019.75
2022-12-03T06:54:13.796Z,101026.06
2022-12-03T06:59:15.210Z,101026.69
2022-12-03T07:04:16.636Z,101018.56
2022-12-03T07:09:18.185Z,101022.25
2022-12-03T07:14:19.818Z,101016.72
2022-12-03T07:19:21.284Z,101018.47
2022-12-03T07:24:22.708Z,101016.81
2022-12-03T07:29:24.733Z,101013.31
2022-12-03T07:34:26.251Z,101008.00
2022-12-03T07:39:27.670Z,101021.34
2022-12-03T07:44:31.300Z,101018.88
2022-12-03T07:49:33.383Z,101024.03
2022-12-03T07:54:35.003Z,101013.16
2022-12-03T07:59:36.448Z,101007.91
2022-12-03T08:04:37.851Z,101007.81
2022-12-03T08:09:40.835Z,101005.91
2022-12-03T08:14:42.594Z,101004.97
2022-12-03T08:19:47.170Z,101009.84
2022-12-03T08:24:48.607Z,101003.94
2022-12-03T08:29:50.023Z,101006.41
2022-12-03T08:34:51.686Z,100992.84
2022-12-03T08:39:54.860Z,100980.06
2022-12-03T08:44:57.165Z,100975.88
2022-12-03T08:50:24.997Z,100970.00
2022-12-03T08:55:36.980Z,100977.00
2022-12-03T09:00:38.450Z,100990.50
2022-12-03T09:05:40.536Z,100989.84
2022-12-03T09:10:42.008Z,100990.44
2022-12-03T09:15:43.447Z,100990.25
2022-12-03T09:20:44.934Z,100977.50
2022-12-03T09:25:46.348Z,100982.84
2022-12-03T09:30:47.851Z,100977.97
2022-12-03T09:35:49.343Z,100972.66
2022-12-03T09:40:50.887Z,100980.91
2022-12-03T09:45:52.516Z,100980.63
2022-12-03T09:50:54.251Z,100978.28
2022-12-03T09:55:59.021Z,100976.03
2022-12-03T10:01:00.546Z,100975.28
2022-12-03T10:06:02.101Z,100976.09
2022-12-03T10:11:03.683Z,100972.34
2022-12-03T10:16:05.433Z,100977.00
2022-12-03T10:21:19.487Z,100964.75
2022-12-03T10:26:39.226Z,100967.53
2022-12-03T10:31:40.817Z,100958.09
2022-12-03T10:36:42.254Z,100959.09
2022-12-03T10:41:44.693Z,100961.47
2022-12-03T10:47:03.978Z,100949.19
2022-12-03T10:52:06.906Z,100945.28
2022-12-03T10:57:09.311Z,100932.25
2022-12-03T11:02:21.087Z,100929.19
2022-12-03T11:07:24.376Z,100927.75
2022-12-03T11:12:28.819Z,100926.00
2022-12-03T11:17:49.774Z,100926.06
2022-12-03T11:22:55.798Z,100922.75
2022-12-03T11:28:12.831Z,100915.22
2022-12-03T11:33:32.062Z,100906.13
2022-12-03T11:38:52.943Z,100898.69
2022-12-03T11:43:56.179Z,100906.38
2022-12-03T11:48:59.770Z,100897.28
2022-12-03T11:54:01.257Z,100897.38
2022-12-03T11:59:04.567Z,100899.72
2022-12-03T12:04:07.867Z,100901.44
2022-12-03T12:09:09.863Z,100890.97
2022-12-03T12:14:13.053Z,100901.66
2022-12-03T12:19:43.167Z,100901.28
2022-12-03T12:24:47.122Z,100895.00
2022-12-03T12:30:12.879Z,100863.34
2022-12-03T12:35:24.979Z,100871.88
2022-12-03T12:40:29.263Z,100871.16
2022-12-03T12:45:34.889Z,100871.16
2022-12-03T12:50:44.672Z,100874.75
2022-12-03T12:55:47.977Z,100880.91
2022-12-03T13:00:55.696Z,100876.03
2022-12-03T13:05:57.785Z,100877.09
2022-12-03T13:11:03.046Z,100884.00
2022-12-03T13:16:19.158Z,100872.34
2022-12-03T13:21:22.790Z,100863.53
2022-12-03T13:26:39.315Z,100875.69
2022-12-03T13:31:44.969Z,100868.75
2022-12-03T13:36:51.972Z,100868.34
2022-12-03T13:42:31.510Z,100875.94
2022-12-03T13:47:32.975Z,100866.03
2022-12-03T13:52:34.901Z,100865.72
2022-12-03T13:57:36.315Z,100867.59
2022-12-03T14:02:37.770Z,100863.38
2022-12-03T14:07:39.466Z,100861.38
2022-12-03T14:12:41.005Z,100865.03
2022-12-03T14:17:42.465Z,100860.16
2022-12-03T14:22:43.962Z,100862.03
2022-12-03T14:27:45.422Z,100861.31
2022-12-03T14:32:47.458Z,100860.94
2022-12-03T14:37:48.922Z,100850.34
2022-12-03T14:42:50.401Z,100854.94
2022-12-03T14:47:51.822Z,100850.25
2022-12-03T14:52:53.406Z,100848.63
2022-12-03T14:57:56.383Z,100855.72
2022-12-03T15:02:57.821Z,100863.69
2022-12-03T15:07:59.406Z,100854.72
2022-12-03T15:13:00.989Z,100860.25
2022-12-03T15:18:02.403Z,100866.94
2022-12-03T15:23:03.898Z,100876.72
2022-12-03T15:28:05.510Z,100876.81
2022-12-03T15:33:06.943Z,100877.03
2022-12-03T15:38:09.390Z,100876.06
2022-12-03T15:43:11.116Z,100869.75
2022-12-03T15:48:13.786Z,100869.44
2022-12-03T15:53:15.248Z,100865.81
2022-12-03T15:58:16.687Z,100867.63
2022-12-03T16:03:18.167Z,100873.88
2022-12-03T16:08:19.702Z,100869.44
2022-12-03T16:13:21.235Z,100860.38
2022-12-03T16:18:22.755Z,100859.34
2022-12-03T16:23:24.231Z,100857.81
2022-12-03T16:28:25.705Z,100852.56
2022-12-03T16:33:28.031Z,100857.78
2022-12-03T16:38:30.998Z,100854.16
2022-12-03T16:43:35.605Z,100846.13
2022-12-03T16:48:37.571Z,100839.13
2022-12-03T16:53:38.998Z,100845.38
2022-12-03T16:58:40.678Z,100843.69
2022-12-03T17:03:42.322Z,100855.25
2022-12-03T17:08:49.068Z,100850.16
2022-12-03T17:13:50.986Z,100839.25
2022-12-03T17:18:52.474Z,100834.84
2022-12-03T17:23:53.891Z,100835.69
2022-12-03T17:28:55.403Z,100835.69
2022-12-03T17:33:57.857Z,100826.69
2022-12-03T17:38:59.306Z,100824.81
2022-12-03T17:44:03.558Z,100823.91
2022-12-03T17:49:07.477Z,100821.06
2022-12-03T17:54:08.900Z,100824.78
2022-12-03T17:59:11.306Z,100814.13
2022-12-03T18:04:12.778Z,100820.25
2022-12-03T18:09:14.227Z,100809.19
2022-12-03T18:14:15.732Z,100811.22
2022-12-03T18:19:17.183Z,100812.13
2022-12-03T18:24:18.710Z,100812.13
2022-12-03T18:29:20.176Z,100810.97
2022-12-03T18:34:21.614Z,100806.31
2022-12-03T18:39:31.610Z,100799.25
2022-12-03T18:44:33.931Z,100802.50
2022-12-03T18:49:35.364Z,100801.56
2022-12-03T18:54:36.787Z,100805.84
2022-12-03T18:59:38.572Z,100805.81
2022-12-03T19:04:39.980Z,100800.50
2022-12-03T19:09:41.893Z,100801.53
2022-12-03T19:14:43.420Z,100792.06
2022-12-03T19:19:45.013Z,100790.31
2022-12-03T19:24:46.503Z,100795.28
2022-12-03T19:29:48.964Z,100805.72
2022-12-03T19:34:50.450Z,100799.13
2022-12-03T19:39:54.964Z,100804.34
2022-12-03T19:44:56.573Z,100808.41
2022-12-03T19:49:58.046Z,100806.19
2022-12-03T19:54:59.633Z,100804.13
2022-12-03T20:00:01.244Z,100816.88
2022-12-03T20:05:03.053Z,100805.09
2022-12-03T20:10:05.134Z,100812.19
2022-12-03T20:15:06.857Z,100807.50
2022-12-03T20:20:08.891Z,100813.06
2022-12-03T20:25:10.481Z,100823.63
2022-12-03T20:30:12.260Z,100821.75
2022-12-03T20:35:13.783Z,100813.69
2022-12-03T20:40:15.383Z,100808.97
2022-12-03T20:45:16.890Z,100807.88
2022-12-03T20:50:18.348Z,100787.25
2022-12-03T20:55:19.774Z,100780.31
2022-12-03T21:00:21.659Z,100778.44
2022-12-03T21:05:23.176Z,100787.06
2022-12-03T21:10:36.420Z,100780.94
2022-12-03T21:15:37.894Z,100788.94
2022-12-03T21:20:46.680Z,100791.47
2022-12-03T21:25:48.096Z,100785.41
2022-12-03T21:30:49.641Z,100778.53
2022-12-03T21:35:51.098Z,100790.63
2022-12-03T21:40:52.827Z,100785.28
2022-12-03T21:45:54.293Z,100799.16
2022-12-03T21:51:04.719Z,100789.72
2022-12-03T21:56:12.004Z,100788.84
2022-12-03T22:01:21.774Z,100783.28
2022-12-03T22:06:24.466Z,100793.22
2022-12-03T22:11:25.883Z,100783.75
2022-12-03T22:16:27.339Z,100792.03
2022-12-03T22:21:28.812Z,100793.06
2022-12-03T22:26:30.224Z,100773.81
2022-12-03T22:31:31.738Z,100768.59
2022-12-03T22:36:33.174Z,100768.72
2022-12-03T22:41:34.630Z,100764.41
2022-12-03T22:46:36.160Z,100760.84
2022-12-03T22:51:37.646Z,100752.09
2022-12-03T22:56:39.685Z,100753.97
2022-12-03T23:01:41.537Z,100748.38
2022-12-03T23:06:43.660Z,100757.06
2022-12-03T23:11:45.485Z,100757.38
2022-12-03T23:16:47.389Z,100747.13
2022-12-03T23:21:48.840Z,100733.34
2022-12-03T23:26:50.294Z,100746.63
2022-12-03T23:31:51.744Z,100744.03
2022-12-03T23:36:53.179Z,100735.94
2022-12-03T23:41:54.630Z,100732.63
2022-12-03T23:46:56.083Z,100720.91
2022-12-03T23:51:57.616Z,100696.97
2022-12-03T23:56:59.284Z,100699.03
